createdAt,value
2023-04-27T00:01:44.065Z,1.90
2023-04-27T00:04:11.648Z,1.33
2023-04-27T00:06:38.961Z,1.98
2023-04-27T00:09:06.117Z,2.58
2023-04-27T00:11:33.333Z,2.30
2023-04-27T00:14:00.796Z,1.27
2023-04-27T00:16:28.009Z,1.77
2023-04-27T00:18:57.472Z,1.67
2023-04-27T00:21:24.749Z,2.13
2023-04-27T00:23:52.027Z,1.73
2023-04-27T00:26:19.287Z,2.67
2023-04-27T00:28:46.944Z,1.48
2023-04-27T00:31:14.114Z,2.47
2023-04-27T00:33:41.354Z,2.13
2023-04-27T00:36:09.058Z,2.40
2023-04-27T00:38:36.385Z,2.08
2023-04-27T00:41:07.580Z,2.08
2023-04-27T00:43:41.878Z,3.03
2023-04-27T00:46:10.017Z,2.85
2023-04-27T00:48:37.663Z,2.35
2023-04-27T00:51:04.910Z,2.33
2023-04-27T00:53:32.872Z,2.65
2023-04-27T00:56:00.335Z,3.25
2023-04-27T00:58:27.587Z,3.70
2023-04-27T01:00:54.907Z,3.25
2023-04-27T01:03:23.178Z,1.15
2023-04-27T01:05:50.490Z,2.75
2023-04-27T01:08:17.655Z,3.60
2023-04-27T01:10:44.987Z,2.38
2023-04-27T01:13:12.528Z,2.72
2023-04-27T01:15:39.726Z,3.65
2023-04-27T01:18:07.245Z,2.33
2023-04-27T01:20:34.426Z,2.97
2023-04-27T01:23:01.602Z,3.22
2023-04-27T01:25:28.834Z,3.00
2023-04-27T01:27:56.097Z,1.92
2023-04-27T01:30:23.326Z,3.58
2023-04-27T01:32:51.045Z,2.42
2023-04-27T01:35:18.264Z,3.10
2023-04-27T01:37:45.564Z,4.18
2023-04-27T01:40:13.109Z,3.90
2023-04-27T01:42:40.426Z,2.53
2023-04-27T01:45:07.898Z,2.38
2023-04-27T01:47:35.189Z,1.90
2023-04-27T01:50:02.392Z,1.65
2023-04-27T01:52:30.011Z,2.78
2023-04-27T01:54:57.269Z,3.75
2023-04-27T01:57:25.331Z,2.75
2023-04-27T01:59:52.552Z,3.03
2023-04-27T02:02:19.876Z,3.40
2023-04-27T02:04:47.319Z,2.72
2023-04-27T02:07:14.684Z,2.20
2023-04-27T02:09:41.962Z,2.08
2023-04-27T02:12:09.143Z,3.88
2023-04-27T02:14:36.448Z,3.08
2023-04-27T02:17:03.704Z,3.75
2023-04-27T02:19:31.002Z,3.97
2023-04-27T02:21:58.224Z,2.75
2023-04-27T02:24:25.460Z,2.60
2023-04-27T02:26:52.622Z,2.80
2023-04-27T02:29:19.801Z,3.65
2023-04-27T02:31:47.618Z,3.35
2023-04-27T02:34:14.841Z,2.22
2023-04-27T02:36:42.044Z,2.38
2023-04-27T02:39:09.275Z,3.13
2023-04-27T02:41:36.515Z,2.22
2023-04-27T02:44:03.712Z,3.42
2023-04-27T02:46:30.992Z,3.50
2023-04-27T02:48:58.254Z,3.33
2023-04-27T02:51:25.549Z,4.07
2023-04-27T02:53:54.263Z,3.03
2023-04-27T02:56:21.470Z,2.10
2023-04-27T02:58:49.200Z,3.22
2023-04-27T03:01:19.745Z,3.33
2023-04-27T03:03:47.898Z,3.30
2023-04-27T03:06:15.786Z,2.80
2023-04-27T03:08:43.226Z,4.93
2023-04-27T03:11:10.456Z,1.98
2023-04-27T03:13:42.008Z,3.00
2023-04-27T03:16:12.479Z,3.30
2023-04-27T03:18:39.853Z,2.63
2023-04-27T03:21:07.155Z,3.25
2023-04-27T03:23:34.602Z,3.10
2023-04-27T03:26:01.911Z,4.60
2023-04-27T03:28:29.064Z,3.50
2023-04-27T03:30:56.349Z,2.40
2023-04-27T03:33:23.656Z,4.43
2023-04-27T03:35:57.755Z,3.63
2023-04-27T03:38:25.637Z,3.47
2023-04-27T03:40:53.304Z,4.60
2023-04-27T03:43:21.057Z,3.50
2023-04-27T03:45:48.465Z,3.45
2023-04-27T03:48:16.402Z,3.60
2023-04-27T03:50:44.516Z,5.45
2023-04-27T03:53:12.023Z,2.00
2023-04-27T03:55:42.681Z,4.25
2023-04-27T03:58:10.429Z,3.85
2023-04-27T04:00:38.114Z,4.28
2023-04-27T04:03:05.691Z,3.60
2023-04-27T04:05:33.151Z,2.95
2023-04-27T04:08:00.603Z,3.40
2023-04-27T04:10:27.875Z,4.22
2023-04-27T04:12:55.244Z,3.17
2023-04-27T04:15:22.467Z,3.40
2023-04-27T04:17:49.674Z,2.88
2023-04-27T04:20:17.523Z,3.10
2023-04-27T04:22:45.147Z,3.63
2023-04-27T04:25:13.074Z,3.80
2023-04-27T04:27:40.944Z,5.03
2023-04-27T04:30:08.496Z,1.98
2023-04-27T04:32:38.095Z,2.85
2023-04-27T04:35:06.311Z,2.92
2023-04-27T04:37:35.319Z,1.67
2023-04-27T04:40:08.893Z,3.70
2023-04-27T04:42:39.054Z,2.60
2023-04-27T04:45:07.286Z,2.88
2023-04-27T04:47:35.090Z,3.97
2023-04-27T04:50:02.588Z,2.75
2023-04-27T04:52:29.767Z,2.97
2023-04-27T04:54:56.988Z,3.78
2023-04-27T04:57:24.334Z,3.83
2023-04-27T04:59:51.555Z,2.95
2023-04-27T05:02:18.842Z,3.70
2023-04-27T05:04:46.259Z,2.45
2023-04-27T05:07:15.138Z,3.17
2023-04-27T05:09:43.327Z,2.53
2023-04-27T05:12:10.637Z,3.80
2023-04-27T05:14:37.830Z,3.58
2023-04-27T05:17:05.122Z,3.85
2023-04-27T05:19:32.279Z,5.43
2023-04-27T05:21:59.745Z,3.28
2023-04-27T05:24:27.384Z,5.00
2023-04-27T05:26:55.001Z,2.33
2023-04-27T05:29:22.630Z,3.20
2023-04-27T05:31:50.096Z,2.20
2023-04-27T05:34:17.424Z,2.10
2023-04-27T05:36:44.679Z,3.40
2023-04-27T05:39:12.006Z,3.75
2023-04-27T05:41:39.516Z,3.00
2023-04-27T05:44:07.087Z,3.30
2023-04-27T05:46:35.950Z,4.00
2023-04-27T05:49:05.124Z,1.60
2023-04-27T05:51:33.410Z,3.75
2023-04-27T05:54:02.033Z,3.28
2023-04-27T05:56:29.509Z,3.42
2023-04-27T05:58:56.670Z,2.13
2023-04-27T06:01:23.827Z,2.95
2023-04-27T06:03:51.117Z,2.53
2023-04-27T06:06:18.587Z,3.47
2023-04-27T06:08:46.009Z,2.33
2023-04-27T06:11:13.220Z,2.15
2023-04-27T06:13:40.384Z,3.08
2023-04-27T06:16:08.185Z,3.15
2023-04-27T06:18:35.465Z,2.97
2023-04-27T06:21:02.958Z,2.65
2023-04-27T06:23:30.458Z,3.45
2023-04-27T06:25:58.798Z,3.25
2023-04-27T06:28:26.307Z,2.20
2023-04-27T06:30:54.949Z,2.78
2023-04-27T06:33:22.199Z,3.35
2023-04-27T06:47:05.257Z,3.33
2023-04-27T06:49:32.462Z,2.67
2023-04-27T06:51:59.650Z,3.17
2023-04-27T06:54:27.033Z,2.30
2023-04-27T06:56:54.811Z,3.00
2023-04-27T06:59:22.018Z,2.55
2023-04-27T07:01:49.345Z,2.08
2023-04-27T07:04:16.702Z,2.72
2023-04-27T07:06:43.979Z,2.47
2023-04-27T07:09:23.959Z,2.25
2023-04-27T07:14:21.594Z,1.92
2023-04-27T07:16:48.846Z,2.65
2023-04-27T07:19:16.813Z,2.08
2023-04-27T07:21:44.168Z,3.97
2023-04-27T07:24:11.363Z,3.17
2023-04-27T07:26:38.595Z,1.55
2023-04-27T12:00:11.320Z,1.58
2023-04-27T12:02:39.235Z,2.83
2023-04-27T12:05:07.677Z,2.35
2023-04-27T12:07:35.073Z,1.58
2023-04-27T12:10:02.351Z,2.22
2023-04-27T12:12:29.678Z,1.35
2023-04-27T12:14:57.929Z,2.10
2023-04-27T12:17:25.235Z,1.90
2023-04-27T12:19:52.621Z,2.40
2023-04-27T12:22:19.853Z,1.42
2023-04-27T12:24:47.083Z,1.80
2023-04-27T12:27:14.330Z,2.42
2023-04-27T12:29:41.546Z,1.88
2023-04-27T12:32:08.881Z,2.05
2023-04-27T12:34:36.546Z,2.42
2023-04-27T12:37:03.720Z,2.42
2023-04-27T12:39:31.030Z,1.73
2023-04-27T12:41:58.535Z,1.52
2023-04-27T12:44:25.801Z,2.67
2023-04-27T12:46:53.120Z,1.88
2023-04-27T12:49:20.446Z,1.30
2023-04-27T12:51:51.490Z,1.63
2023-04-27T12:54:18.722Z,0.90
2023-04-27T12:56:47.058Z,1.13
2023-04-27T12:59:14.318Z,1.35
2023-04-27T13:01:41.590Z,1.25
2023-04-27T13:04:09.249Z,0.73
2023-04-27T13:06:36.610Z,1.30
2023-04-27T13:09:03.990Z,2.22
2023-04-27T13:11:31.256Z,1.50
2023-04-27T13:13:58.919Z,1.23
2023-04-27T13:16:26.544Z,1.20
2023-04-27T13:18:55.580Z,1.20
2023-04-27T13:21:23.304Z,1.45
2023-04-27T13:23:51.683Z,0.93
2023-04-27T13:26:19.142Z,1.45
2023-04-27T13:28:46.466Z,2.20
2023-04-27T13:31:13.764Z,1.08
2023-04-27T15:23:54.544Z,0.60
2023-04-27T15:26:21.797Z,0.75
2023-04-27T15:28:49.124Z,1.33
2023-04-27T15:31:16.616Z,1.50
2023-04-27T15:33:43.897Z,1.77
2023-04-27T15:36:11.247Z,1.70
2023-04-27T15:38:38.417Z,1.52
2023-04-27T15:41:05.880Z,1.08
2023-04-27T15:43:33.170Z,1.15
2023-04-27T15:46:03.562Z,1.65
2023-04-27T15:48:30.894Z,1.38
2023-04-27T15:50:58.149Z,1.73
2023-04-27T15:53:25.460Z,1.27
2023-04-27T15:55:55.182Z,0.70
2023-04-27T15:58:22.409Z,1.38
2023-04-27T16:00:49.663Z,1.25
2023-04-27T16:03:17.022Z,1.00
2023-04-27T16:05:44.492Z,1.15
2023-04-27T16:08:11.678Z,1.02
2023-04-27T16:10:38.876Z,1.48
2023-04-27T16:13:06.196Z,1.70
2023-04-27T16:15:33.428Z,0.98
2023-04-27T16:18:00.719Z,1.20
2023-04-27T16:20:29.000Z,1.55
2023-04-27T16:22:56.277Z,1.35
2023-04-27T16:25:23.513Z,1.30
2023-04-27T16:27:51.016Z,1.08
2023-04-27T16:30:18.570Z,1.63
2023-04-27T16:33:04.338Z,0.38
2023-04-27T16:35:33.532Z,0.95
2023-04-27T16:38:00.789Z,1.63
2023-04-27T16:40:27.991Z,1.58
2023-04-27T16:42:55.581Z,0.50
2023-04-27T16:45:22.991Z,2.22
2023-04-27T16:47:50.193Z,1.58
2023-04-27T16:50:17.762Z,0.88
2023-04-27T16:52:45.188Z,0.63
2023-04-27T16:55:12.478Z,2.05
2023-04-27T16:57:39.665Z,0.85
2023-04-27T17:00:09.629Z,0.22
2023-04-27T17:02:36.966Z,0.50
2023-04-27T17:05:04.557Z,1.15
2023-04-27T17:07:32.818Z,1.05
2023-04-27T17:10:00.250Z,0.30
2023-04-27T17:12:27.515Z,0.82
2023-04-27T17:14:54.891Z,0.40
2023-04-27T17:17:22.238Z,0.70
2023-04-27T17:19:49.420Z,0.47
2023-04-27T17:22:16.606Z,1.08
2023-04-27T17:24:43.817Z,0.43
2023-04-27T17:27:11.360Z,1.63
2023-04-27T17:29:38.583Z,0.93
2023-04-27T17:32:05.886Z,0.40
2023-04-27T17:34:33.254Z,0.70
2023-04-27T17:37:00.578Z,0.82
2023-04-27T17:39:28.367Z,0.20
2023-04-27T17:41:56.885Z,0.80
2023-04-27T17:44:24.246Z,0.25
2023-04-27T17:46:52.283Z,1.13
2023-04-27T17:49:19.955Z,0.20
2023-04-27T17:51:47.444Z,0.75
2023-04-27T17:54:14.678Z,0.65
2023-04-27T17:56:42.828Z,1.35
2023-04-27T17:59:10.052Z,1.55
2023-04-27T18:01:37.245Z,0.40
2023-04-27T18:04:07.116Z,0.95
2023-04-27T18:06:34.662Z,0.43
2023-04-27T18:09:01.995Z,1.63
2023-04-27T18:11:29.237Z,0.52
2023-04-27T18:13:58.168Z,0.57
2023-04-27T18:16:25.918Z,0.55
2023-04-27T18:18:53.137Z,0.20
2023-04-27T18:21:20.406Z,0.10
2023-04-27T18:23:47.808Z,1.60
2023-04-27T18:26:14.975Z,0.68
2023-04-27T18:28:42.243Z,0.73
2023-04-27T18:31:19.157Z,0.52
2023-04-27T18:33:47.051Z,0.80
2023-04-27T18:36:17.120Z,0.30
2023-04-27T18:38:44.573Z,1.27
2023-04-27T18:41:11.942Z,0.95
2023-04-27T18:43:39.114Z,0.43
2023-04-27T18:46:06.714Z,1.27
2023-04-27T18:48:33.888Z,0.40
2023-04-27T18:51:01.287Z,1.50
2023-04-27T18:53:28.708Z,0.63
2023-04-27T18:55:56.071Z,1.77
2023-04-27T18:58:23.274Z,0.45
2023-04-27T19:00:50.766Z,0.17
2023-04-27T19:03:18.199Z,0.43
2023-04-27T19:05:45.496Z,0.57
2023-04-27T19:08:12.827Z,0.25
2023-04-27T19:10:43.127Z,0.55
2023-04-27T19:13:10.937Z,0.85
2023-04-27T19:15:38.193Z,0.50
2023-04-27T19:18:10.654Z,1.15
2023-04-27T19:20:38.985Z,1.05
2023-04-27T19:23:07.873Z,1.27
2023-04-27T19:25:35.336Z,0.30
2023-04-27T19:28:02.573Z,0.47
2023-04-27T19:30:29.877Z,0.30
2023-04-27T19:32:57.192Z,0.73
2023-04-27T19:35:26.317Z,0.52
2023-04-27T19:37:53.871Z,0.63
2023-04-27T19:40:21.452Z,0.57
2023-04-27T19:42:49.726Z,0.35
2023-04-27T19:45:18.067Z,0.85
2023-04-27T19:47:46.009Z,1.08
2023-04-27T19:50:13.424Z,1.50
2023-04-27T19:52:40.682Z,0.73
2023-04-27T19:55:08.386Z,0.80
2023-04-27T19:57:36.366Z,0.55
2023-04-27T20:00:11.651Z,0.90
2023-04-27T20:02:39.345Z,1.08
2023-04-27T20:05:07.787Z,0.88
2023-04-27T20:07:38.741Z,1.25
2023-04-27T20:10:06.385Z,1.02
2023-04-27T20:12:51.369Z,0.93
2023-04-27T20:15:20.751Z,0.40
2023-04-27T20:17:47.976Z,0.47
2023-04-27T20:20:15.424Z,0.55
2023-04-27T20:22:42.837Z,0.70
2023-04-27T20:25:10.671Z,0.40
2023-04-27T20:27:37.910Z,0.40
2023-04-27T20:30:05.306Z,1.60
2023-04-27T20:32:32.568Z,0.40
2023-04-27T20:35:01.926Z,0.45
2023-04-27T20:37:29.459Z,0.38
2023-04-27T20:39:56.667Z,0.80
2023-04-27T20:42:24.613Z,0.03
2023-04-27T20:44:54.986Z,0.30
2023-04-27T20:47:22.570Z,0.88
2023-04-27T20:49:49.829Z,1.02
2023-04-27T20:52:17.123Z,0.95
2023-04-27T20:54:44.372Z,0.05
2023-04-27T20:57:14.214Z,0.15
2023-04-27T20:59:41.692Z,0.60
2023-04-27T21:02:08.936Z,0.47
2023-04-27T21:04:36.337Z,0.55
2023-04-27T21:07:03.658Z,0.68
2023-04-27T21:09:31.367Z,0.45
2023-04-27T21:11:58.700Z,1.48
2023-04-27T21:14:25.954Z,0.45
2023-04-27T21:16:53.280Z,0.40
2023-04-27T21:19:20.603Z,0.47
2023-04-27T21:21:47.759Z,0.82
2023-04-27T21:24:15.232Z,0.28
2023-04-27T21:26:42.544Z,0.30
2023-04-27T21:29:09.946Z,0.55
2023-04-27T21:31:37.421Z,0.30
2023-04-27T21:34:04.832Z,0.70
2023-04-27T21:36:32.335Z,0.10
2023-04-27T21:38:59.666Z,0.52
2023-04-27T21:41:27.009Z,0.50
2023-04-27T21:43:54.225Z,1.27
2023-04-27T21:46:22.932Z,0.00
2023-04-27T21:48:50.208Z,0.10
2023-04-27T21:51:17.427Z,0.00
2023-04-27T21:53:44.639Z,1.58
2023-04-27T21:56:11.775Z,0.08
2023-04-27T21:58:39.186Z,0.30
2023-04-27T22:01:06.588Z,0.15
2023-04-27T22:03:34.078Z,0.00
2023-04-27T22:06:01.420Z,0.20
2023-04-27T22:08:28.569Z,0.30
2023-04-27T22:10:56.251Z,0.38
2023-04-27T22:13:23.672Z,0.32
2023-04-27T22:15:51.169Z,0.50
2023-04-27T22:18:18.619Z,0.32
2023-04-27T22:20:46.135Z,0.30
2023-04-27T22:23:13.471Z,0.40
2023-04-27T22:25:42.903Z,0.45
2023-04-27T22:28:10.651Z,0.13
2023-04-27T22:30:37.921Z,0.00
2023-04-27T22:33:05.295Z,0.00
2023-04-27T22:35:33.353Z,0.00
2023-04-27T22:38:01.021Z,0.20
2023-04-27T22:40:28.298Z,0.10
2023-04-27T22:42:55.996Z,0.25
2023-04-27T22:45:23.878Z,0.60
2023-04-27T22:47:51.211Z,0.22
2023-04-27T22:50:18.555Z,0.50
2023-04-27T22:52:45.969Z,0.20
2023-04-27T22:55:13.616Z,0.10
2023-04-27T22:57:41.827Z,0.00
2023-04-27T23:00:12.764Z,0.00
2023-04-27T23:02:40.546Z,0.00
2023-04-27T23:05:08.242Z,0.00
2023-04-27T23:07:36.190Z,0.20
2023-04-27T23:10:03.576Z,0.13
2023-04-27T23:12:31.338Z,0.00
2023-04-27T23:14:59.014Z,0.00
2023-04-27T23:17:33.025Z,0.00
2023-04-27T23:20:01.509Z,0.00
2023-04-27T23:22:28.860Z,0.00
2023-04-27T23:24:56.294Z,0.10
2023-04-27T23:27:24.799Z,0.00
2023-04-27T23:29:52.645Z,0.00
2023-04-27T23:32:19.978Z,0.00
2023-04-27T23:34:47.422Z,0.00
2023-04-27T23:37:14.639Z,0.10
2023-04-27T23:39:41.811Z,0.05
2023-04-27T23:42:08.985Z,0.00
2023-04-27T23:44:36.280Z,0.00
2023-04-27T23:47:03.610Z,0.00
2023-04-27T23:49:30.774Z,0.00
2023-04-27T23:51:57.915Z,0.03
2023-04-27T23:54:26.026Z,0.65
2023-04-27T23:56:53.412Z,0.00
2023-04-27T23:59:20.587Z,0.00
